Time;durP1;ratioP1;P1;durP2;ratioP2;P2;SDS_P1;SDS_P2;PMS_P1;PMS_P2;Temp;Humidity;BMP_temperature;BMP_pressure;BME280_temperature;BME280_humidity;BME280_pressure;Samples;Min_cycle;Max_cycle;Signal;HPM_P1;HPM_P2
2022/09/09 00:02:27;;;;;;;2.60;2.40;;;23.40;65.10;;;;;;4987853;28;43566;-71
2022/09/09 00:05:01;;;;;;;3.43;2.80;;;23.30;65.40;;;;;;4976059;28;46145;-71
2022/09/09 00:07:36;;;;;;;2.33;2.23;;;23.30;65.30;;;;;;4988857;28;43469;-72
2022/09/09 00:10:10;;;;;;;2.40;2.30;;;23.30;65.20;;;;;;4993267;28;43342;-72
2022/09/09 00:12:40;;;;;;;2.30;2.20;;;23.30;65.30;;;;;;5005793;28;43583;-72
2022/09/09 00:15:12;;;;;;;2.83;2.63;;;23.30;65.60;;;;;;4988425;28;43917;-73
2022/09/09 00:17:43;;;;;;;2.53;2.40;;;23.30;65.60;;;;;;4985124;28;44727;-71
2022/09/09 00:20:13;;;;;;;2.37;2.27;;;23.40;65.50;;;;;;4968850;28;43529;-72
2022/09/09 00:22:45;;;;;;;2.50;2.40;;;23.50;65.10;;;;;;4987895;28;43522;-70
2022/09/09 00:25:16;;;;;;;2.40;2.30;;;23.60;64.50;;;;;;4993205;28;44096;-72
2022/09/09 00:27:46;;;;;;;2.50;2.40;;;23.70;64.40;;;;;;4975719;28;44404;-70
2022/09/09 00:30:18;;;;;;;2.50;2.40;;;23.70;64.40;;;;;;4988988;28;43966;-72
2022/09/09 00:32:46;;;;;;;2.40;2.30;;;23.60;64.30;;;;;;4975526;28;43413;-72
2022/09/09 00:35:18;;;;;;;2.23;2.13;;;23.50;64.70;;;;;;5000139;28;45978;-71
2022/09/09 00:37:48;;;;;;;2.70;2.50;;;23.50;64.80;;;;;;4994715;28;43433;-71
2022/09/09 00:40:23;;;;;;;2.23;2.13;;;23.40;64.70;;;;;;4972255;28;43491;-72
2022/09/09 00:42:53;;;;;;;2.40;2.30;;;23.40;64.80;;;;;;4976425;28;43850;-73
2022/09/09 00:45:36;;;;;;;2.30;2.20;;;23.40;65.30;;;;;;4993587;28;44016;-71
2022/09/09 00:48:05;;;;;;;2.17;2.07;;;23.30;65.20;;;;;;4991605;28;43463;-71
2022/09/09 00:50:39;;;;;;;2.50;2.40;;;23.30;65.10;;;;;;4987853;28;43428;-72
2022/09/09 00:53:14;;;;;;;2.70;2.50;;;23.30;65.20;;;;;;4982444;28;43612;-70
2022/09/09 00:55:45;;;;;;;2.40;2.30;;;23.30;65.50;;;;;;4996984;28;43904;-71
2022/09/09 00:58:12;;;;;;;2.40;2.30;;;23.30;65.60;;;;;;4991905;28;43458;-72
2022/09/09 01:00:43;;;;;;;2.57;2.40;;;23.30;65.30;;;;;;4992978;28;43433;-72
2022/09/09 01:03:20;;;;;;;2.30;2.20;;;23.50;65.10;;;;;;4991728;28;43913;-72
2022/09/09 01:05:51;;;;;;;2.53;2.37;;;23.60;64.70;;;;;;4973405;28;45762;-72
2022/09/09 01:08:35;;;;;;;2.47;2.37;;;23.60;64.50;;;;;;4999796;28;43494;-72
2022/09/09 01:11:04;;;;;;;2.33;2.23;;;23.60;64.40;;;;;;4968989;28;43600;-70
2022/09/09 01:13:33;;;;;;;2.40;2.30;;;23.50;64.50;;;;;;4990273;28;44074;-70
2022/09/09 01:16:06;;;;;;;2.40;2.30;;;23.40;64.90;;;;;;4973463;28;44033;-71
2022/09/09 01:18:38;;;;;;;2.63;2.43;;;23.40;64.90;;;;;;4973559;28;43294;-72
2022/09/09 01:21:10;;;;;;;2.40;2.20;;;23.40;65.00;;;;;;4998130;28;43468;-71
2022/09/09 01:23:46;;;;;;;2.37;2.27;;;23.40;65.00;;;;;;4979132;28;43863;-72
2022/09/09 01:26:27;;;;;;;2.83;2.23;;;23.30;65.20;;;;;;4972726;28;45826;-71
2022/09/09 01:28:58;;;;;;;5.90;2.50;;;23.30;65.40;;;;;;4974817;28;44618;-72
2022/09/09 01:31:37;;;;;;;12.30;2.30;;;23.30;65.40;;;;;;4978693;28;44020;-73
2022/09/09 01:34:10;;;;;;;2.30;2.10;;;23.30;65.30;;;;;;4978174;28;43483;-72
2022/09/09 01:36:41;;;;;;;3.93;2.30;;;23.20;65.40;;;;;;4976578;28;45691;-72
2022/09/09 01:39:11;;;;;;;4.67;2.60;;;23.20;65.70;;;;;;4979232;28;43410;-72
2022/09/09 01:41:40;;;;;;;2.37;2.27;;;23.30;65.60;;;;;;4973064;28;43869;-72
2022/09/09 01:44:13;;;;;;;2.00;1.80;;;23.40;65.20;;;;;;4978113;28;43429;-71
2022/09/09 01:46:44;;;;;;;2.70;2.50;;;23.50;64.80;;;;;;4971177;28;44724;-72
2022/09/09 01:49:18;;;;;;;2.40;2.30;;;23.50;64.50;;;;;;4974561;28;43509;-73
2022/09/09 01:51:48;;;;;;;2.10;2.00;;;23.50;64.50;;;;;;4974836;28;43549;-74
2022/09/09 01:54:16;;;;;;;2.70;2.00;;;23.50;64.70;;;;;;4980930;28;43568;-72
2022/09/09 01:56:48;;;;;;;2.90;2.30;;;23.40;65.00;;;;;;4992200;28;43910;-72
2022/09/09 01:59:39;;;;;;;2.60;2.40;;;23.40;65.10;;;;;;4981413;28;43477;-72
2022/09/09 02:02:10;;;;;;;2.03;2.00;;;23.30;65.00;;;;;;4986998;28;43487;-72
2022/09/09 02:04:45;;;;;;;2.10;2.00;;;23.30;65.10;;;;;;4977240;28;43924;-71
2022/09/09 02:07:36;;;;;;;2.47;2.37;;;23.30;65.40;;;;;;4978708;28;45403;-71
2022/09/09 02:10:11;;;;;;;1.90;1.90;;;23.30;65.50;;;;;;4979963;28;44343;-72
2022/09/09 02:12:45;;;;;;;2.17;2.00;;;23.40;65.20;;;;;;4974354;28;43464;-72
2022/09/09 02:15:27;;;;;;;1.80;1.80;;;23.40;64.80;;;;;;4976467;28;43553;-71
2022/09/09 02:17:55;;;;;;;1.73;1.73;;;23.50;64.80;;;;;;4980230;28;46037;-71
2022/09/09 02:20:24;;;;;;;2.10;2.00;;;23.40;64.70;;;;;;4990959;28;44676;-71
2022/09/09 02:22:56;;;;;;;2.43;2.30;;;23.40;65.00;;;;;;4974379;28;43946;-71
2022/09/09 02:25:26;;;;;;;1.97;1.97;;;23.40;65.00;;;;;;4980779;28;43486;-70
2022/09/09 02:28:00;;;;;;;1.90;1.80;;;23.40;64.90;;;;;;4976968;28;44038;-73
2022/09/09 02:30:28;;;;;;;2.10;2.00;;;23.40;65.00;;;;;;4971000;28;43465;-72
2022/09/09 02:32:59;;;;;;;2.00;1.90;;;23.30;65.00;;;;;;4976421;28;43584;-71
2022/09/09 02:35:48;;;;;;;2.23;2.13;;;23.30;65.30;;;;;;4981237;28;43604;-71
2022/09/09 02:38:19;;;;;;;2.20;2.10;;;23.30;65.30;;;;;;4970419;28;45342;-73
2022/09/09 02:41:00;;;;;;;2.13;2.03;;;23.30;65.30;;;;;;4979170;28;43758;-71
2022/09/09 02:43:33;;;;;;;2.10;2.00;;;23.20;65.30;;;;;;4973325;28;43924;-71
2022/09/09 02:46:06;;;;;;;1.83;1.73;;;23.20;65.60;;;;;;4975817;28;43569;-73
2022/09/09 02:48:38;;;;;;;1.90;1.90;;;23.20;65.40;;;;;;4975744;28;46173;-70
2022/09/09 02:51:10;;;;;;;1.93;1.83;;;23.30;65.10;;;;;;4979072;28;45110;-72
2022/09/09 02:53:41;;;;;;;2.30;2.10;;;23.50;64.80;;;;;;4971275;28;43377;-71
2022/09/09 02:56:11;;;;;;;2.10;2.00;;;23.50;64.50;;;;;;4974233;28;43468;-71
2022/09/09 02:58:43;;;;;;;1.67;1.67;;;23.50;64.40;;;;;;4973464;28;44058;-70
2022/09/09 03:01:12;;;;;;;1.87;1.80;;;23.50;64.50;;;;;;4972296;28;44999;-71
2022/09/09 03:03:41;;;;;;;1.90;1.80;;;23.40;64.80;;;;;;4975560;28;43793;-72
2022/09/09 03:06:14;;;;;;;1.90;1.80;;;23.40;65.00;;;;;;4994430;28;43697;-72
2022/09/09 03:08:42;;;;;;;2.00;1.90;;;23.30;64.90;;;;;;4974500;28;44041;-71
2022/09/09 03:11:21;;;;;;;2.23;2.13;;;23.30;65.00;;;;;;4998123;28;45039;-70
2022/09/09 03:13:51;;;;;;;2.07;1.87;;;23.30;65.20;;;;;;4994681;28;43580;-73
2022/09/09 03:16:21;;;;;;;1.73;1.70;;;23.20;65.40;;;;;;4976273;28;43560;-72
2022/09/09 03:18:52;;;;;;;1.90;1.80;;;23.20;65.20;;;;;;4986128;28;43927;-73
2022/09/09 03:21:20;;;;;;;1.70;1.70;;;23.20;65.20;;;;;;4979423;28;44504;-73
2022/09/09 03:23:49;;;;;;;2.07;1.97;;;23.20;65.30;;;;;;4982293;28;43439;-71
2022/09/09 03:26:17;;;;;;;1.80;1.80;;;23.10;65.60;;;;;;4979648;28;43557;-73
2022/09/09 03:28:47;;;;;;;1.90;1.90;;;23.20;65.60;;;;;;4974197;28;45727;-72
2022/09/09 03:31:19;;;;;;;1.90;1.90;;;23.20;65.50;;;;;;4977145;28;43524;-70
2022/09/09 03:33:48;;;;;;;1.70;1.70;;;23.10;65.40;;;;;;4977165;28;43462;-73
2022/09/09 03:36:18;;;;;;;1.60;1.60;;;23.10;66.40;;;;;;5002715;28;43417;-71
2022/09/09 03:38:45;;;;;;;1.97;1.80;;;23.10;65.70;;;;;;4987629;28;44035;-72
2022/09/09 03:41:14;;;;;;;1.70;1.60;;;23.20;65.40;;;;;;4977918;28;44629;-71
2022/09/09 03:43:42;;;;;;;1.80;1.70;;;23.30;65.10;;;;;;4976443;28;43377;-73
2022/09/09 03:46:10;;;;;;;1.70;1.70;;;23.50;64.70;;;;;;4977100;28;43455;-74
2022/09/09 03:48:40;;;;;;;1.57;1.57;;;23.50;64.30;;;;;;4975060;28;46045;-76
2022/09/09 03:51:08;;;;;;;1.80;1.80;;;23.50;64.30;;;;;;4981793;28;44741;-71
2022/09/09 03:53:37;;;;;;;1.40;1.40;;;23.50;64.30;;;;;;4989082;28;43425;-70
2022/09/09 03:56:06;;;;;;;1.70;1.70;;;23.40;64.60;;;;;;4977701;28;43531;-71
2022/09/09 03:58:34;;;;;;;1.50;1.50;;;23.40;64.80;;;;;;4975014;28;45772;-74
2022/09/09 04:01:08;;;;;;;1.50;1.50;;;23.40;64.80;;;;;;5001382;28;44778;-73
2022/09/09 04:03:37;;;;;;;1.60;1.60;;;23.30;64.90;;;;;;4976094;28;44000;-72
2022/09/09 04:06:07;;;;;;;1.90;1.73;;;23.30;65.00;;;;;;4989676;28;44266;-72
2022/09/09 04:08:35;;;;;;;1.50;1.50;;;23.20;65.20;;;;;;4996741;28;43918;-71
2022/09/09 04:11:06;;;;;;;1.50;1.50;;;23.20;65.20;;;;;;4972286;28;44899;-71
2022/09/09 04:13:35;;;;;;;1.33;1.33;;;23.20;65.20;;;;;;4975464;28;43417;-72
2022/09/09 04:16:03;;;;;;;1.40;1.40;;;23.20;65.30;;;;;;4975080;28;43506;-72
2022/09/09 04:18:32;;;;;;;1.60;1.60;;;23.20;65.60;;;;;;4979166;28;44033;-75
2022/09/09 04:21:01;;;;;;;1.70;1.67;;;23.20;65.40;;;;;;4982052;28;45962;-71
2022/09/09 04:23:33;;;;;;;1.40;1.40;;;23.30;65.30;;;;;;4972203;28;43512;-74
2022/09/09 04:26:01;;;;;;;1.50;1.50;;;23.40;64.80;;;;;;4992483;28;43603;-72
2022/09/09 04:28:32;;;;;;;1.37;1.37;;;23.50;63.90;;;;;;4972892;28;43776;-74
2022/09/09 04:31:05;;;;;;;1.80;1.70;;;23.50;63.90;;;;;;4990826;28;43874;-72
2022/09/09 04:33:34;;;;;;;1.60;1.50;;;23.50;64.30;;;;;;4979377;28;43413;-72
2022/09/09 04:36:08;;;;;;;1.70;1.60;;;23.40;64.40;;;;;;4988737;28;43496;-73
2022/09/09 04:38:37;;;;;;;1.80;1.70;;;23.30;63.80;;;;;;4991149;28;44159;-72
2022/09/09 04:41:05;;;;;;;1.50;1.50;;;23.30;64.30;;;;;;4998963;28;43465;-71
2022/09/09 04:43:35;;;;;;;1.30;1.30;;;23.20;64.50;;;;;;4975166;28;43413;-71
2022/09/09 04:46:05;;;;;;;1.77;1.70;;;23.20;64.70;;;;;;5000454;28;43448;-72
2022/09/09 04:48:33;;;;;;;2.10;2.00;;;23.20;65.10;;;;;;4976693;28;44178;-73
2022/09/09 04:51:04;;;;;;;1.73;1.73;;;23.20;65.10;;;;;;4973069;28;43717;-72
2022/09/09 04:53:34;;;;;;;1.60;1.60;;;23.30;65.00;;;;;;4982490;28;43966;-72
2022/09/09 04:56:04;;;;;;;1.60;1.60;;;23.40;64.50;;;;;;4991272;28;43472;-71
2022/09/09 04:58:36;;;;;;;1.67;1.60;;;23.40;64.30;;;;;;4986798;28;43912;-71
2022/09/09 05:01:07;;;;;;;1.60;1.50;;;23.40;64.30;;;;;;5001433;28;43580;-71
2022/09/09 05:03:37;;;;;;;4.70;1.47;;;23.40;64.40;;;;;;4994635;28;43432;-71
2022/09/09 05:06:09;;;;;;;1.60;1.50;;;23.30;64.60;;;;;;4981441;28;43655;-72
2022/09/09 05:08:37;;;;;;;1.70;1.60;;;23.30;65.00;;;;;;4988026;28;45416;-72
2022/09/09 05:11:17;;;;;;;1.50;1.50;;;23.20;64.80;;;;;;4975185;28;43443;-70
2022/09/09 05:13:45;;;;;;;1.50;1.50;;;23.20;64.90;;;;;;4991351;28;43608;-72
2022/09/09 05:16:13;;;;;;;1.30;1.20;;;23.20;65.10;;;;;;4976712;28;43519;-72
2022/09/09 05:18:42;;;;;;;1.63;1.60;;;23.20;65.40;;;;;;4998465;28;45275;-72
2022/09/09 05:21:11;;;;;;;1.50;1.50;;;23.10;65.20;;;;;;4975661;28;44997;-71
2022/09/09 05:23:38;;;;;;;1.30;1.30;;;23.10;65.20;;;;;;5002117;28;43448;-72
2022/09/09 05:26:10;;;;;;;3.67;2.00;;;23.10;65.30;;;;;;4981031;28;43441;-71
2022/09/09 05:28:43;;;;;;;1.77;1.67;;;23.10;65.50;;;;;;4973152;28;45636;-72
2022/09/09 05:31:12;;;;;;;1.40;1.40;;;23.10;65.30;;;;;;4996027;28;43403;-71
2022/09/09 05:33:42;;;;;;;1.30;1.30;;;23.20;65.10;;;;;;4973871;28;43523;-72
2022/09/09 05:36:13;;;;;;;1.30;1.30;;;23.30;64.70;;;;;;4990762;28;43486;-71
2022/09/09 05:38:41;;;;;;;2.13;1.77;;;23.40;64.30;;;;;;4976508;28;43934;-72
2022/09/09 05:41:11;;;;;;;1.10;1.10;;;23.40;64.10;;;;;;4972669;28;44337;-73
2022/09/09 05:43:39;;;;;;;1.50;1.50;;;23.40;64.20;;;;;;4977309;28;43585;-71
2022/09/09 05:46:08;;;;;;;1.30;1.30;;;23.30;64.30;;;;;;4993255;28;43497;-70
2022/09/09 05:48:37;;;;;;;1.40;1.30;;;23.30;64.50;;;;;;4993805;28;43596;-71
2022/09/09 05:51:06;;;;;;;2.13;1.20;;;23.20;64.50;;;;;;4978399;28;44647;-71
2022/09/09 05:53:34;;;;;;;1.40;1.40;;;23.20;64.60;;;;;;4984523;28;43390;-71
2022/09/09 05:56:04;;;;;;;1.77;1.30;;;23.10;64.70;;;;;;4980952;28;43474;-73
2022/09/09 05:58:35;;;;;;;1.50;1.40;;;23.10;64.80;;;;;;4972422;28;45549;-72
2022/09/09 06:01:07;;;;;;;1.40;1.40;;;23.10;64.90;;;;;;4980825;28;44795;-71
2022/09/09 06:03:35;;;;;;;1.03;1.03;;;23.10;64.90;;;;;;4976355;28;43409;-72
2022/09/09 06:06:06;;;;;;;1.50;1.40;;;23.10;65.10;;;;;;4989657;28;43440;-72
2022/09/09 06:08:33;;;;;;;1.27;1.27;;;23.00;65.10;;;;;;4980648;28;45576;-73
2022/09/09 06:11:03;;;;;;;1.33;1.33;;;23.10;65.30;;;;;;5003945;28;44114;-73
2022/09/09 06:13:31;;;;;;;1.43;1.33;;;23.10;64.90;;;;;;4989732;28;43359;-72
2022/09/09 06:16:00;;;;;;;1.07;1.07;;;23.30;64.50;;;;;;4984230;28;43632;-71
2022/09/09 06:18:29;;;;;;;1.10;1.10;;;23.40;64.90;;;;;;4980160;28;44089;-74
2022/09/09 06:20:57;;;;;;;1.20;1.20;;;23.40;64.00;;;;;;5003682;28;43764;-71
2022/09/09 06:23:26;;;;;;;1.20;1.20;;;23.30;64.00;;;;;;4993418;28;43413;-73
2022/09/09 06:26:02;;;;;;;1.50;1.40;;;23.30;64.30;;;;;;5002149;28;43546;-71
2022/09/09 06:28:30;;;;;;;1.10;1.10;;;23.20;64.50;;;;;;4973469;28;45744;-69
2022/09/09 06:31:03;;;;;;;1.20;1.10;;;23.20;64.50;;;;;;4990933;28;43421;-73
2022/09/09 06:33:32;;;;;;;1.40;1.40;;;23.20;64.60;;;;;;4977205;28;43479;-75
2022/09/09 06:36:00;;;;;;;1.30;1.30;;;23.10;64.70;;;;;;4973920;28;43572;-72
2022/09/09 06:38:28;;;;;;;1.20;1.20;;;23.10;64.80;;;;;;4998214;28;44545;-72
2022/09/09 06:40:58;;;;;;;1.57;1.47;;;23.10;65.10;;;;;;4971963;28;44710;-72
2022/09/09 06:43:27;;;;;;;1.10;1.10;;;23.10;65.00;;;;;;4978408;28;43471;-70
2022/09/09 06:45:56;;;;;;;1.23;1.23;;;23.00;64.90;;;;;;4976637;28;43661;-72
2022/09/09 06:48:27;;;;;;;1.50;1.40;;;23.00;65.00;;;;;;4976695;28;44202;-71
2022/09/09 06:51:02;;;;;;;1.13;1.13;;;23.00;65.10;;;;;;4973215;28;44857;-72
2022/09/09 06:53:33;;;;;;;1.07;1.07;;;23.00;65.00;;;;;;4975167;28;43410;-71
2022/09/09 06:56:02;;;;;;;1.10;1.10;;;23.10;64.70;;;;;;4973149;28;43419;-73
2022/09/09 06:58:31;;;;;;;1.43;1.30;;;23.20;64.30;;;;;;4972887;28;45760;-71
2022/09/09 07:01:04;;;;;;;1.10;1.10;;;23.30;63.90;;;;;;4971654;28;43442;-71
2022/09/09 07:03:34;;;;;;;1.53;1.40;;;23.30;63.80;;;;;;4982145;28;43423;-73
2022/09/09 07:06:04;;;;;;;1.10;1.10;;;23.30;64.00;;;;;;4991754;28;43578;-71
2022/09/09 07:08:32;;;;;;;2.00;1.20;;;23.20;64.10;;;;;;5005979;28;45409;-72
2022/09/09 07:11:04;;;;;;;1.10;1.10;;;23.20;64.40;;;;;;4980747;28;44756;-71
2022/09/09 07:13:38;;;;;;;1.10;1.10;;;23.10;64.30;;;;;;4978452;28;43346;-73
2022/09/09 07:16:08;;;;;;;1.40;1.30;;;23.10;64.50;;;;;;4976135;28;43513;-71
2022/09/09 07:18:37;;;;;;;1.60;1.40;;;23.10;64.60;;;;;;4975648;28;45762;-72
2022/09/09 07:21:06;;;;;;;1.40;1.30;;;23.00;64.60;;;;;;4977196;28;44378;-71
2022/09/09 07:23:35;;;;;;;1.30;1.20;;;23.10;64.60;;;;;;4993651;28;43424;-71
2022/09/09 07:26:07;;;;;;;1.63;1.23;;;23.10;64.20;;;;;;4983579;28;43480;-72
2022/09/09 07:28:35;;;;;;;1.33;1.23;;;23.30;64.00;;;;;;4997697;28;43960;-71
2022/09/09 07:31:04;;;;;;;1.57;1.47;;;23.30;63.70;;;;;;4981298;28;44636;-71
2022/09/09 07:33:33;;;;;;;1.60;1.10;;;23.30;63.70;;;;;;4983597;28;43378;-73
2022/09/09 07:36:08;;;;;;;1.03;1.03;;;23.20;63.90;;;;;;4983148;28;43410;-71
2022/09/09 07:38:40;;;;;;;3.27;1.10;;;23.10;64.80;;;;;;4976169;28;43945;-71
2022/09/09 07:41:11;;;;;;;1.73;1.37;;;23.10;64.00;;;;;;4972858;28;43674;-73
2022/09/09 07:43:40;;;;;;;1.00;1.00;;;23.10;64.20;;;;;;4972722;28;43502;-71
2022/09/09 07:46:08;;;;;;;2.10;1.20;;;23.00;64.30;;;;;;4980048;28;43575;-72
2022/09/09 07:48:37;;;;;;;1.20;1.10;;;23.00;64.50;;;;;;4989042;28;43975;-72
2022/09/09 07:51:08;;;;;;;1.70;1.53;;;23.00;64.60;;;;;;4972732;28;43422;-72
2022/09/09 07:53:37;;;;;;;1.10;1.00;;;23.00;64.50;;;;;;4975987;28;43382;-71
2022/09/09 07:56:06;;;;;;;1.10;1.10;;;23.00;64.60;;;;;;5001712;28;43999;-72
2022/09/09 07:58:34;;;;;;;2.00;1.40;;;22.90;64.70;;;;;;4978508;28;46075;-72
2022/09/09 08:01:10;;;;;;;1.47;1.33;;;22.90;64.60;;;;;;4977267;28;43486;-71
2022/09/09 08:03:37;;;;;;;1.03;1.00;;;22.90;64.40;;;;;;4979851;28;44031;-73
2022/09/09 08:06:08;;;;;;;1.30;1.30;;;23.00;64.10;;;;;;4975813;28;43554;-72
2022/09/09 08:08:37;;;;;;;1.27;1.13;;;23.20;63.90;;;;;;4976642;28;45437;-72
2022/09/09 08:11:08;;;;;;;1.17;1.17;;;23.30;63.50;;;;;;4992958;28;43393;-73
2022/09/09 08:13:37;;;;;;;1.40;1.30;;;23.30;63.30;;;;;;4972743;28;43951;-71
2022/09/09 08:16:09;;;;;;;2.07;1.20;;;23.30;63.30;;;;;;4982147;28;43512;-71
2022/09/09 08:18:37;;;;;;;1.67;1.27;;;23.20;63.60;;;;;;4980521;28;44949;-71
2022/09/09 08:21:12;;;;;;;1.40;1.37;;;23.10;63.50;;;;;;4989662;28;43512;-71
2022/09/09 08:23:41;;;;;;;2.60;1.33;;;23.10;63.50;;;;;;4984593;28;43418;-71
2022/09/09 08:26:12;;;;;;;1.10;1.10;;;23.10;63.90;;;;;;4974919;28;43413;-72
2022/09/09 08:28:40;;;;;;;1.47;1.40;;;23.00;64.00;;;;;;4982088;28;45679;-72
2022/09/09 08:31:10;;;;;;;2.00;1.40;;;23.00;64.00;;;;;;4972610;28;44039;-72
2022/09/09 08:33:40;;;;;;;2.30;1.30;;;23.00;64.00;;;;;;4979825;28;43537;-71
2022/09/09 08:36:11;;;;;;;1.60;1.10;;;23.00;64.20;;;;;;4997693;28;43878;-72
2022/09/09 08:38:39;;;;;;;1.53;1.43;;;23.00;64.30;;;;;;4976543;28;45805;-72
2022/09/09 08:41:17;;;;;;;1.60;1.50;;;22.90;64.30;;;;;;4991243;28;44025;-72
2022/09/09 08:43:46;;;;;;;3.07;1.90;;;22.90;64.20;;;;;;4974462;28;43905;-72
2022/09/09 08:46:17;;;;;;;2.03;1.47;;;23.00;64.00;;;;;;5000129;28;43931;-72
2022/09/09 08:48:52;;;;;;;2.03;1.47;;;23.10;63.70;;;;;;4970017;28;45464;-71
2022/09/09 08:51:21;;;;;;;1.83;1.30;;;23.20;63.30;;;;;;4994062;28;43421;-73
2022/09/09 08:53:51;;;;;;;1.80;1.47;;;23.20;62.90;;;;;;4999604;28;43503;-73
2022/09/09 08:56:25;;;;;;;1.00;1.00;;;23.20;63.10;;;;;;5000398;28;43635;-73
2022/09/09 08:58:57;;;;;;;1.67;1.47;;;23.10;63.40;;;;;;4975043;28;44047;-70
2022/09/09 09:01:40;;;;;;;3.17;2.07;;;23.10;63.40;;;;;;4985055;28;45721;-71
2022/09/09 09:04:30;;;;;;;2.20;1.30;;;23.00;63.60;;;;;;4977055;28;43446;-73
2022/09/09 09:07:06;;;;;;;1.53;1.40;;;23.00;63.70;;;;;;4975032;28;43729;-72
2022/09/09 09:09:38;;;;;;;2.47;1.77;;;23.00;64.00;;;;;;4977734;28;45926;-71
2022/09/09 09:12:14;;;;;;;1.63;1.40;;;22.90;64.00;;;;;;4996227;28;44649;-73
2022/09/09 09:14:42;;;;;;;5.17;1.90;;;22.90;64.00;;;;;;4979302;28;43401;-71
2022/09/09 09:17:14;;;;;;;1.50;1.30;;;22.90;64.10;;;;;;4979439;28;43587;-71
2022/09/09 09:19:43;;;;;;;1.40;1.30;;;22.90;64.20;;;;;;4979087;28;44048;-71
2022/09/09 09:22:17;;;;;;;1.40;1.30;;;22.90;64.30;;;;;;4995453;28;45035;-74
2022/09/09 09:24:50;;;;;;;2.37;1.57;;;22.90;64.20;;;;;;4973974;28;43468;-71
2022/09/09 09:27:26;;;;;;;3.13;1.40;;;22.90;64.10;;;;;;4975565;28;43465;-72
2022/09/09 09:29:56;;;;;;;1.73;1.63;;;23.00;64.00;;;;;;4970649;28;45450;-71
2022/09/09 09:32:48;;;;;;;2.10;1.53;;;23.10;63.60;;;;;;4993589;28;43438;-71
2022/09/09 09:35:16;;;;;;;2.17;1.50;;;23.20;63.20;;;;;;4975488;28;43430;-72
2022/09/09 09:37:46;;;;;;;3.13;1.40;;;23.30;63.00;;;;;;5003820;28;44124;-72
2022/09/09 09:40:35;;;;;;;3.23;1.40;;;23.20;63.10;;;;;;4975551;28;44032;-70
2022/09/09 09:43:07;;;;;;;4.57;1.60;;;23.20;63.40;;;;;;4976064;28;44996;-71
2022/09/09 09:45:41;;;;;;;1.40;1.30;;;23.10;63.20;;;;;;4997422;28;43365;-72
2022/09/09 09:48:23;;;;;;;2.20;1.30;;;23.10;63.30;;;;;;4989966;28;43429;-72
2022/09/09 09:50:51;;;;;;;1.40;1.30;;;23.10;63.70;;;;;;5006983;28;43612;-71
2022/09/09 09:53:23;;;;;;;1.43;1.30;;;23.00;63.70;;;;;;4978780;28;44604;-71
2022/09/09 09:55:56;;;;;;;1.53;1.40;;;23.00;63.70;;;;;;4977872;28;43417;-71
2022/09/09 09:58:23;;;;;;;1.53;1.27;;;23.00;63.70;;;;;;4999060;28;43439;-72
2022/09/09 10:00:53;;;;;;;2.80;1.50;;;23.00;63.80;;;;;;4990948;28;43724;-70
2022/09/09 10:03:26;;;;;;;1.70;1.37;;;23.00;64.00;;;;;;4986871;28;44633;-71
2022/09/09 10:05:56;;;;;;;1.60;1.30;;;23.00;64.00;;;;;;4978281;28;43406;-72
2022/09/09 10:08:25;;;;;;;1.30;1.30;;;23.00;64.10;;;;;;4993063;28;43532;-72
2022/09/09 10:11:03;;;;;;;1.93;1.50;;;23.00;64.10;;;;;;5004491;28;44947;-72
2022/09/09 10:13:33;;;;;;;1.37;1.27;;;23.10;63.80;;;;;;4996528;28;43373;-71
2022/09/09 10:16:09;;;;;;;2.00;1.60;;;23.20;63.60;;;;;;4996987;28;43419;-72
2022/09/09 10:18:54;;;;;;;1.97;1.40;;;23.20;63.40;;;;;;4979433;28;43458;-70
2022/09/09 10:21:33;;;;;;;1.30;1.20;;;23.20;63.40;;;;;;4976209;28;45644;-71
2022/09/09 10:24:14;;;;;;;1.40;1.30;;;23.20;63.60;;;;;;4990336;28;43467;-71
2022/09/09 10:26:45;;;;;;;1.53;1.40;;;23.10;63.80;;;;;;4994024;28;43922;-71
2022/09/09 10:29:28;;;;;;;2.17;1.40;;;23.10;63.90;;;;;;4979509;28;43385;-71
2022/09/09 10:32:01;;;;;;;1.20;1.10;;;23.10;64.70;;;;;;4997015;28;43860;-71
2022/09/09 10:34:40;;;;;;;1.83;1.43;;;23.10;64.10;;;;;;4985499;28;45461;-72
2022/09/09 10:37:25;;;;;;;2.33;1.57;;;23.00;64.20;;;;;;4979199;28;43443;-71
2022/09/09 10:39:58;;;;;;;1.20;1.10;;;23.00;64.10;;;;;;4997268;28;43408;-72
2022/09/09 10:42:28;;;;;;;1.33;1.23;;;23.10;63.90;;;;;;4998513;28;44078;-71
2022/09/09 10:45:02;;;;;;;1.67;1.40;;;23.20;63.60;;;;;;4995047;28;43936;-73
2022/09/09 10:47:48;;;;;;;2.60;1.40;;;23.30;63.10;;;;;;4998347;28;43515;-72
2022/09/09 10:50:39;;;;;;;0.97;0.97;;;23.30;63.40;;;;;;4997600;28;43500;-70
2022/09/09 10:53:35;;;;;;;2.67;1.27;;;23.20;63.60;;;;;;4996911;28;44180;-72
2022/09/09 10:56:07;;;;;;;1.33;1.20;;;23.20;64.10;;;;;;5001731;28;43430;-73
2022/09/09 10:58:38;;;;;;;2.00;1.40;;;23.10;64.30;;;;;;4992132;28;43475;-72
2022/09/09 11:01:10;;;;;;;1.43;1.33;;;23.10;64.30;;;;;;5007443;28;43413;-71
2022/09/09 11:03:39;;;;;;;1.17;1.07;;;23.10;64.30;;;;;;4994456;28;43855;-71
2022/09/09 11:06:10;;;;;;;1.60;1.50;;;23.10;64.60;;;;;;4989356;28;43417;-71
2022/09/09 11:08:39;;;;;;;1.27;1.17;;;23.10;65.10;;;;;;4998446;28;43418;-73
2022/09/09 11:11:11;;;;;;;1.10;1.00;;;23.10;64.80;;;;;;5000370;28;43492;-71
2022/09/09 11:13:43;;;;;;;1.50;1.40;;;23.10;64.70;;;;;;4974035;28;46142;-71
2022/09/09 11:16:18;;;;;;;1.47;1.30;;;23.10;64.80;;;;;;4974901;28;44639;-72
2022/09/09 11:18:46;;;;;;;1.00;1.00;;;23.00;65.30;;;;;;4998612;28;43417;-71
2022/09/09 11:21:18;;;;;;;1.13;1.13;;;23.10;65.40;;;;;;4992097;28;43875;-72
2022/09/09 11:23:48;;;;;;;1.30;1.20;;;23.20;65.20;;;;;;5001807;28;43588;-71
2022/09/09 11:26:19;;;;;;;1.30;1.20;;;23.30;64.80;;;;;;4988569;28;44317;-70
2022/09/09 11:28:58;;;;;;;1.40;1.30;;;23.40;64.50;;;;;;4996751;28;43398;-70
2022/09/09 11:31:41;;;;;;;1.23;1.20;;;23.50;64.40;;;;;;4991164;28;43500;-71
2022/09/09 11:34:18;;;;;;;1.60;1.30;;;23.50;64.10;;;;;;4988831;28;43934;-72
2022/09/09 11:37:11;;;;;;;1.97;1.27;;;23.40;64.30;;;;;;4990937;28;43451;-71
2022/09/09 11:39:46;;;;;;;1.20;1.20;;;23.30;64.90;;;;;;4994367;28;43412;-71
2022/09/09 11:42:19;;;;;;;1.30;1.30;;;23.30;64.80;;;;;;4976345;28;43571;-70
2022/09/09 11:44:47;;;;;;;1.10;1.10;;;23.20;64.70;;;;;;4981924;28;46016;-74
2022/09/09 11:47:24;;;;;;;1.50;1.40;;;23.20;64.90;;;;;;4992106;28;43994;-70
2022/09/09 11:49:53;;;;;;;1.03;1.03;;;23.20;65.50;;;;;;4970674;28;43464;-72
2022/09/09 11:52:23;;;;;;;1.10;1.10;;;23.20;65.50;;;;;;4977171;28;43434;-71
2022/09/09 11:54:51;;;;;;;1.83;1.30;;;23.10;65.30;;;;;;4988760;28;44031;-71
2022/09/09 11:57:25;;;;;;;1.47;1.37;;;23.10;65.40;;;;;;4974615;28;44329;-72
2022/09/09 11:59:54;;;;;;;1.20;1.20;;;23.10;66.00;;;;;;5003106;28;43416;-71
2022/09/09 12:02:24;;;;;;;1.33;1.30;;;23.10;65.90;;;;;;4996414;28;43438;-72
2022/09/09 12:04:57;;;;;;;1.27;1.23;;;23.10;65.70;;;;;;4994276;28;43930;-72
2022/09/09 12:07:34;;;;;;;1.13;1.07;;;23.10;65.60;;;;;;4991841;28;43396;-71
2022/09/09 12:10:04;;;;;;;1.20;1.20;;;23.00;65.80;;;;;;4995831;28;43922;-74
2022/09/09 12:12:34;;;;;;;1.10;1.10;;;23.00;66.10;;;;;;4994218;28;43357;-73
2022/09/09 12:15:31;;;;;;;1.27;1.20;;;23.10;66.10;;;;;;4995425;28;43772;-71
2022/09/09 12:18:02;;;;;;;1.13;1.13;;;23.20;65.70;;;;;;4983004;28;43584;-71
2022/09/09 12:20:35;;;;;;;0.90;0.90;;;23.40;65.40;;;;;;4990065;28;43431;-72
2022/09/09 12:23:21;;;;;;;1.10;1.10;;;23.40;65.10;;;;;;4980207;28;43829;-71
2022/09/09 12:26:09;;;;;;;0.97;0.97;;;23.40;64.90;;;;;;4988300;28;43634;-71
2022/09/09 12:28:46;;;;;;;0.90;0.90;;;23.30;64.90;;;;;;4991302;28;43501;-71
2022/09/09 12:31:17;;;;;;;1.10;1.10;;;23.30;65.70;;;;;;4990882;28;43363;-72
2022/09/09 12:33:47;;;;;;;1.30;1.20;;;23.20;65.50;;;;;;4994535;28;43441;-72
2022/09/09 12:36:16;;;;;;;1.17;1.17;;;23.20;65.40;;;;;;4994170;28;43819;-71
2022/09/09 12:38:44;;;;;;;1.23;1.23;;;23.20;65.50;;;;;;4978593;28;44426;-71
2022/09/09 12:41:20;;;;;;;1.20;1.10;;;23.10;66.10;;;;;;4989699;28;43498;-70
2022/09/09 12:43:50;;;;;;;1.00;1.00;;;23.10;66.20;;;;;;4991322;28;43365;-71
2022/09/09 12:46:26;;;;;;;1.60;1.30;;;23.20;65.90;;;;;;4974069;28;46107;-71
2022/09/09 12:48:53;;;;;;;1.57;1.30;;;23.30;65.70;;;;;;4987526;28;43458;-72
2022/09/09 12:51:24;;;;;;;1.40;1.23;;;23.40;65.60;;;;;;4991981;28;43388;-70
2022/09/09 12:53:52;;;;;;;1.10;1.10;;;23.40;65.40;;;;;;4994006;28;43512;-73
2022/09/09 12:56:21;;;;;;;1.63;1.20;;;23.30;65.30;;;;;;5002377;28;44982;-71
2022/09/09 12:58:52;;;;;;;1.37;1.37;;;23.30;65.60;;;;;;4987946;28;43455;-74
2022/09/09 13:01:22;;;;;;;1.40;1.30;;;23.20;66.00;;;;;;4974982;28;43398;-72
2022/09/09 13:03:51;;;;;;;1.33;1.33;;;23.20;65.90;;;;;;4990750;28;43801;-72
2022/09/09 13:06:22;;;;;;;1.00;1.00;;;23.10;65.80;;;;;;4974156;28;45281;-71
2022/09/09 13:08:56;;;;;;;1.10;1.10;;;23.10;65.90;;;;;;4993735;28;43430;-71
2022/09/09 13:11:25;;;;;;;1.20;1.20;;;23.10;66.50;;;;;;4972439;28;43449;-72
2022/09/09 13:13:55;;;;;;;1.20;1.20;;;23.10;66.40;;;;;;4977803;28;43600;-72